createdAt,value
2022-12-12T00:00:29.331Z,14.86
2022-12-12T00:02:59.483Z,16.89
2022-12-12T00:05:29.357Z,16.47
2022-12-12T00:07:59.476Z,16.89
2022-12-12T00:10:29.413Z,18.01
2022-12-12T00:12:59.420Z,15.29
2022-12-12T00:15:29.460Z,14.5
2022-12-12T00:17:59.472Z,15.07
2022-12-12T00:20:29.495Z,19.44
2022-12-12T00:22:59.512Z,16.74
2022-12-12T00:25:29.540Z,18.86
2022-12-12T00:27:59.570Z,14.86
2022-12-12T00:30:29.628Z,14.85
2022-12-12T00:35:29.653Z,16.19
2022-12-12T00:37:59.672Z,16.49
2022-12-12T00:40:29.699Z,21.8
2022-12-12T00:47:59.773Z,19.28
2022-12-12T00:50:29.787Z,23.66
2022-12-12T00:52:59.799Z,19.82
2022-12-12T00:57:59.857Z,15.43
2022-12-12T01:02:59.998Z,13.71
2022-12-12T01:07:59.987Z,13.22
2022-12-12T01:10:29.990Z,13.3
2022-12-12T01:13:00.031Z,13.14
2022-12-12T01:15:30.026Z,15.28
2022-12-12T01:18:00.094Z,16.56
2022-12-12T01:20:30.082Z,16.5
2022-12-12T01:23:00.096Z,16.45
2022-12-12T01:25:30.134Z,16.62
2022-12-12T01:28:00.165Z,14.56
2022-12-12T01:30:30.172Z,14.57
2022-12-12T01:33:00.183Z,14.48
2022-12-12T01:35:30.210Z,15.4
2022-12-12T01:38:00.237Z,17.66
2022-12-12T01:40:30.269Z,16.01
2022-12-12T01:43:00.271Z,14.82
2022-12-12T01:45:30.307Z,17.36
2022-12-12T01:48:04.995Z,17.41
2022-12-12T01:50:30.381Z,14.3
2022-12-12T01:53:00.384Z,17.35
2022-12-12T01:55:30.409Z,13.36
2022-12-12T01:58:00.417Z,16.08
2022-12-12T02:00:30.546Z,14.4
2022-12-12T02:08:00.555Z,14.86
2022-12-12T02:10:30.537Z,15.77
2022-12-12T02:13:00.578Z,14.64
2022-12-12T02:15:30.595Z,14.49
2022-12-12T02:18:03.573Z,14.6
2022-12-12T02:20:30.658Z,15.53
2022-12-12T02:23:00.682Z,13.8
2022-12-12T02:25:30.704Z,14.37
2022-12-12T02:28:00.719Z,12.62
2022-12-12T02:30:30.728Z,13.48
2022-12-12T02:33:00.765Z,13.99
2022-12-12T02:35:30.790Z,17.26
2022-12-12T02:38:00.795Z,14.1
2022-12-12T02:40:30.843Z,14.43
2022-12-12T02:50:30.935Z,12.57
2022-12-12T02:53:00.961Z,17.82
2022-12-12T02:55:35.072Z,14.77
2022-12-12T03:05:31.102Z,14.93
2022-12-12T03:08:01.129Z,14.82
2022-12-12T03:10:31.115Z,14.55
2022-12-12T03:13:01.160Z,12.18
2022-12-12T03:18:01.214Z,14.55
2022-12-12T03:20:31.206Z,13
2022-12-12T03:23:01.261Z,12.24
2022-12-12T03:25:31.279Z,12.75
2022-12-12T03:28:01.277Z,12.64
2022-12-12T03:33:01.350Z,13.17
2022-12-12T03:40:31.422Z,10.83
2022-12-12T03:43:01.443Z,11.38
2022-12-12T03:45:31.561Z,12.45
2022-12-12T03:48:01.467Z,12.81
2022-12-12T03:50:31.523Z,11.6
2022-12-12T03:53:01.536Z,19.9
2022-12-12T03:55:31.554Z,17.54
2022-12-12T03:58:01.571Z,14.56
2022-12-12T04:00:31.607Z,14.94
2022-12-12T04:05:31.665Z,18.73
2022-12-12T04:08:01.762Z,14.49
2022-12-12T04:10:31.700Z,13.86
2022-12-12T04:13:01.718Z,16.9
2022-12-12T04:18:01.765Z,13.15
2022-12-12T04:20:31.808Z,15.28
2022-12-12T04:23:01.829Z,14.38
2022-12-12T04:25:31.833Z,13.58
2022-12-12T04:33:01.911Z,13.31
2022-12-12T04:35:31.935Z,12.15
2022-12-12T04:38:01.966Z,13.23
2022-12-12T04:40:31.990Z,13.38
2022-12-12T04:43:02.023Z,13.41
2022-12-12T04:45:32.100Z,13
2022-12-12T04:48:02.034Z,14.92
2022-12-12T04:53:02.097Z,13.94
2022-12-12T04:55:32.113Z,14.51
2022-12-12T05:03:02.189Z,14.77
2022-12-12T05:05:32.200Z,14.29
2022-12-12T05:08:02.337Z,14.12
2022-12-12T05:10:32.282Z,16.5
2022-12-12T05:13:02.299Z,17.59
2022-12-12T05:15:32.312Z,16.81
2022-12-12T05:18:02.339Z,14.23
2022-12-12T05:23:02.397Z,14.78
2022-12-12T05:28:02.436Z,15.57
2022-12-12T05:33:02.501Z,15.82
2022-12-12T05:35:32.522Z,15.39
2022-12-12T05:38:02.532Z,12.46
2022-12-12T05:48:02.651Z,13.61
2022-12-12T05:53:02.695Z,13.64
2022-12-12T05:55:32.698Z,13.23
2022-12-12T05:58:02.771Z,14.25
2022-12-12T06:00:32.769Z,16.55
2022-12-12T06:03:02.765Z,14.22
2022-12-12T06:10:32.852Z,12.48
2022-12-12T06:13:02.858Z,12.56
2022-12-12T06:18:02.915Z,13.92
2022-12-12T06:20:32.942Z,13.03
2022-12-12T06:23:02.982Z,11.28
2022-12-12T06:25:32.987Z,12.33
2022-12-12T06:30:33.033Z,14.03
2022-12-12T06:33:03.058Z,14.95
2022-12-12T06:35:33.077Z,14.73
2022-12-12T06:38:03.110Z,15.23
2022-12-12T06:43:03.164Z,16.09
2022-12-12T06:45:33.176Z,17.88
2022-12-12T06:48:03.238Z,15.59
2022-12-12T06:50:33.249Z,13.71
2022-12-12T06:53:03.247Z,13.77
2022-12-12T06:55:33.302Z,13.74
2022-12-12T07:03:03.399Z,15.84
2022-12-12T07:05:33.377Z,14.78
2022-12-12T07:08:03.443Z,13.63
2022-12-12T07:13:03.448Z,15.97
2022-12-12T07:15:33.534Z,16.07
2022-12-12T07:18:03.472Z,20.19
2022-12-12T07:23:03.532Z,16.23
2022-12-12T07:25:33.582Z,15.28
2022-12-12T07:28:03.574Z,15.1
2022-12-12T07:30:33.606Z,13.35
2022-12-12T07:33:03.635Z,13.62
2022-12-12T07:35:33.679Z,13.21
2022-12-12T07:38:03.683Z,15.46
2022-12-12T07:40:33.728Z,16.47
2022-12-12T07:48:03.770Z,15.71
2022-12-12T07:50:33.797Z,14.32
2022-12-12T07:55:33.847Z,18.29
2022-12-12T07:58:03.856Z,16.94
2022-12-12T08:05:33.989Z,18.21
2022-12-12T08:10:34.003Z,18.66
2022-12-12T08:13:04.012Z,16.18
2022-12-12T08:15:34.040Z,17.98
2022-12-12T08:25:34.141Z,14.84
2022-12-12T08:33:08.045Z,16.9
2022-12-12T08:38:04.246Z,15.88
2022-12-12T08:40:34.294Z,17.26
2022-12-12T08:43:04.283Z,17.13
2022-12-12T08:45:34.324Z,17.27
2022-12-12T08:48:04.355Z,17.36
2022-12-12T08:50:34.385Z,18.36
2022-12-12T08:53:04.391Z,20.14
2022-12-12T08:55:34.451Z,22.58
2022-12-12T08:58:04.450Z,19.96
2022-12-12T09:00:34.465Z,18.73
2022-12-12T09:03:04.583Z,19.42
2022-12-12T09:05:34.511Z,16.46
2022-12-12T09:08:04.572Z,16.49
2022-12-12T09:10:34.557Z,14.86
2022-12-12T09:13:04.593Z,15.2
2022-12-12T09:15:34.629Z,17.92
2022-12-12T09:18:04.644Z,16.53
2022-12-12T09:20:34.648Z,14.61
2022-12-12T09:23:04.687Z,16.43
2022-12-12T09:25:37.744Z,16.34
2022-12-12T09:28:04.736Z,16.3
2022-12-12T09:30:34.746Z,16.91
2022-12-12T09:33:04.785Z,18.47
2022-12-12T09:35:34.813Z,15.67
2022-12-12T09:38:07.116Z,17.78
2022-12-12T09:40:34.852Z,21.82
2022-12-12T09:45:34.971Z,17.58
2022-12-12T09:48:04.997Z,16.79
2022-12-12T09:50:34.953Z,20.13
2022-12-12T09:53:04.991Z,20.05
2022-12-12T09:55:35.022Z,19.28
2022-12-12T09:58:05.013Z,16.52
2022-12-12T10:00:35.104Z,15.99
2022-12-12T10:03:05.058Z,16.27
2022-12-12T10:08:05.157Z,15.68
2022-12-12T10:10:35.145Z,18.14
2022-12-12T10:13:05.176Z,21.78
2022-12-12T10:15:35.200Z,21.31
2022-12-12T10:28:05.319Z,13.74
2022-12-12T10:30:35.336Z,15.72
2022-12-12T10:35:35.381Z,15.64
2022-12-12T10:38:05.388Z,17.79
2022-12-12T10:40:35.418Z,15.45
2022-12-12T10:43:05.458Z,25.91
2022-12-12T10:45:35.578Z,18.17
2022-12-12T10:48:05.484Z,15.81
2022-12-12T10:50:35.518Z,13.13
2022-12-12T10:53:05.561Z,11.67
2022-12-12T10:55:35.565Z,13.84
2022-12-12T10:58:05.601Z,13.21
2022-12-12T11:00:35.714Z,11.08
2022-12-12T11:03:05.723Z,13.96
2022-12-12T11:05:35.657Z,13.85
2022-12-12T11:08:05.725Z,16.89
2022-12-12T11:10:35.757Z,17.45
2022-12-12T11:13:05.746Z,18.03
2022-12-12T11:15:35.764Z,19.79
2022-12-12T11:18:06.412Z,21.56
2022-12-12T11:20:35.834Z,18.41
2022-12-12T11:23:05.833Z,16.55
2022-12-12T11:25:35.867Z,14.09
2022-12-12T11:30:35.921Z,15.51
2022-12-12T11:35:35.929Z,13.07
2022-12-12T11:38:05.966Z,15.05
2022-12-12T11:40:35.986Z,14.78
2022-12-12T11:43:06.000Z,12.95
2022-12-12T11:45:36.094Z,16.44
2022-12-12T11:48:06.073Z,16.28
2022-12-12T11:50:36.087Z,13.25
2022-12-12T11:53:06.118Z,15.03
2022-12-12T11:55:36.140Z,12.52
2022-12-12T12:00:36.215Z,12.05
2022-12-12T12:03:06.263Z,14.11
2022-12-12T12:05:36.236Z,13.95
2022-12-12T12:08:06.306Z,14.88
2022-12-12T12:10:36.312Z,15.12
2022-12-12T12:13:06.300Z,16.25
2022-12-12T12:15:36.334Z,16.32
2022-12-12T12:18:06.363Z,13.26
2022-12-12T12:20:36.376Z,16.42
2022-12-12T12:23:06.393Z,13.09
2022-12-12T12:25:36.416Z,14.72
2022-12-12T12:28:06.457Z,13.92
2022-12-12T12:33:06.502Z,14.09
2022-12-12T12:35:36.532Z,12.02
2022-12-12T12:38:06.552Z,16.05
2022-12-12T12:45:36.626Z,13.81
2022-12-12T12:48:10.512Z,13.3
2022-12-12T12:50:36.671Z,21.46
2022-12-12T12:53:06.690Z,17.81
2022-12-12T12:55:36.712Z,20.66
2022-12-12T12:58:06.732Z,15.59
2022-12-12T13:00:36.745Z,20.83
2022-12-12T13:05:36.821Z,18.49
2022-12-12T13:08:06.898Z,14.83
2022-12-12T13:10:36.850Z,14.36
2022-12-12T13:13:06.866Z,14.13
2022-12-12T13:18:06.947Z,17.28
2022-12-12T13:20:36.942Z,19.26
2022-12-12T13:23:06.964Z,17.99
2022-12-12T13:25:36.994Z,14.59
2022-12-12T13:28:07.035Z,12.9
2022-12-12T13:30:37.099Z,11.21
2022-12-12T13:33:07.049Z,11.02
2022-12-12T13:35:37.081Z,17.35
2022-12-12T13:38:07.128Z,18.89
2022-12-12T13:40:37.131Z,18.13
2022-12-12T13:43:10.016Z,18.8
2022-12-12T13:45:37.186Z,15.21
2022-12-12T13:48:07.241Z,12.85
2022-12-12T13:53:07.273Z,12.63
2022-12-12T14:00:37.317Z,16.87
2022-12-12T14:03:07.465Z,14.13
2022-12-12T14:08:07.420Z,12.29
2022-12-12T14:13:07.466Z,12.43
2022-12-12T14:15:37.509Z,11.41
2022-12-12T14:18:07.506Z,13.8
2022-12-12T14:20:37.517Z,14.08
2022-12-12T14:23:07.556Z,14.37
2022-12-12T14:25:37.584Z,14.13
2022-12-12T14:28:07.590Z,15.22
2022-12-12T14:30:37.614Z,22.17
2022-12-12T14:33:07.627Z,20.12
2022-12-12T14:35:37.676Z,15.91
2022-12-12T14:38:07.686Z,13.22
2022-12-12T14:40:37.693Z,11.86
2022-12-12T14:43:21.413Z,14.5
2022-12-12T14:45:37.768Z,13.12
2022-12-12T14:48:07.783Z,12.78
2022-12-12T14:50:37.801Z,12.02
2022-12-12T14:53:07.830Z,14.78
2022-12-12T14:55:37.854Z,12.74
2022-12-12T14:58:07.870Z,10.82
2022-12-12T15:00:37.891Z,10.9
2022-12-12T15:03:08.102Z,10.8
2022-12-12T15:05:37.970Z,13.26
2022-12-12T15:10:38.004Z,17.22
2022-12-12T15:13:08.029Z,15.04
2022-12-12T15:15:38.066Z,22.49
2022-12-12T15:18:08.053Z,19.28
2022-12-12T15:20:38.098Z,19.61
2022-12-12T15:23:08.116Z,14.96
2022-12-12T15:25:38.149Z,25.07
2022-12-12T15:28:08.156Z,19.38
2022-12-12T15:30:38.170Z,15.4
2022-12-12T15:33:08.227Z,20.38
2022-12-12T15:35:38.226Z,15.54
2022-12-12T15:38:08.268Z,17.64
2022-12-12T15:40:38.319Z,15.21
2022-12-12T15:43:08.307Z,13.41
2022-12-12T15:48:08.349Z,11.94
2022-12-12T15:50:38.386Z,14.72
2022-12-12T15:53:08.427Z,14.49
2022-12-12T15:55:38.419Z,17.07
2022-12-12T16:00:38.602Z,15.42
2022-12-12T16:03:08.499Z,13.33
2022-12-12T16:08:08.617Z,13.35
2022-12-12T16:13:08.605Z,12.66
2022-12-12T16:15:38.611Z,12.77
2022-12-12T16:18:08.656Z,19.78
2022-12-12T16:23:08.708Z,20.96
2022-12-12T16:25:38.712Z,17.25
2022-12-12T16:28:08.755Z,17.59
2022-12-12T16:30:38.781Z,24.15
2022-12-12T16:33:08.787Z,22.87
2022-12-12T16:35:38.816Z,25.53
2022-12-12T16:38:09.033Z,25.02
2022-12-12T16:40:38.867Z,20.06
2022-12-12T16:43:11.239Z,15.38
2022-12-12T16:45:38.964Z,13.25
2022-12-12T16:48:08.931Z,13.68
2022-12-12T16:50:38.972Z,9.54
2022-12-12T16:53:08.991Z,12.89
2022-12-12T16:55:39.003Z,11.2
2022-12-12T16:58:09.033Z,13.09
2022-12-12T17:00:39.157Z,14.21
2022-12-12T17:03:09.067Z,11.97
2022-12-12T17:05:39.097Z,13.58
2022-12-12T17:08:09.149Z,13.85
2022-12-12T17:10:39.156Z,12.16
2022-12-12T17:13:09.164Z,14.12
2022-12-12T17:15:39.198Z,13.77
2022-12-12T17:18:09.234Z,18.15
2022-12-12T17:20:39.249Z,15.57
2022-12-12T17:23:40.808Z,17.3
2022-12-12T17:25:39.308Z,20.87
2022-12-12T17:28:09.332Z,24.28
2022-12-12T17:30:39.353Z,20.97
2022-12-12T17:33:16.552Z,17.98
2022-12-12T17:35:39.405Z,18.37
2022-12-12T17:38:15.769Z,16.44
2022-12-12T17:40:39.443Z,13.62
2022-12-12T17:43:09.453Z,12.52
2022-12-12T17:45:39.557Z,10.92
2022-12-12T17:48:09.525Z,10.14
2022-12-12T17:50:41.828Z,15.93
2022-12-12T17:53:09.556Z,16.7
2022-12-12T17:55:54.486Z,16.74
2022-12-12T17:58:09.589Z,22.22
2022-12-12T18:03:09.659Z,21.95
2022-12-12T18:08:09.734Z,16.33
2022-12-12T18:10:39.728Z,15.89
2022-12-12T18:13:09.761Z,18.61
2022-12-12T18:15:39.778Z,22.01
2022-12-12T18:20:39.824Z,20.17
2022-12-12T18:23:09.859Z,15.22
2022-12-12T18:25:39.878Z,16.12
2022-12-12T18:28:09.883Z,15.97
2022-12-12T18:30:39.903Z,16.01
2022-12-12T18:33:09.955Z,14.04
2022-12-12T18:35:39.961Z,17.1
2022-12-12T18:38:09.990Z,19.43
2022-12-12T18:40:40.003Z,27.14
2022-12-12T18:43:10.044Z,20.99
2022-12-12T18:45:40.108Z,19.09
2022-12-12T18:50:40.114Z,16.05
2022-12-12T18:53:10.132Z,15.16
2022-12-12T18:55:40.138Z,15.38
2022-12-12T18:58:10.185Z,12.93
2022-12-12T19:00:40.228Z,13.03
2022-12-12T19:03:10.236Z,14.6
2022-12-12T19:05:40.246Z,15.94
2022-12-12T19:10:40.311Z,15.08
2022-12-12T19:15:40.329Z,15.49
2022-12-12T19:18:10.375Z,15.91
2022-12-12T19:20:40.404Z,19.07
2022-12-12T19:25:42.945Z,15.4
2022-12-12T19:28:10.458Z,18.26
2022-12-12T19:33:10.508Z,16.6
2022-12-12T19:38:10.582Z,16.73
2022-12-12T19:40:40.601Z,17.22
2022-12-12T19:43:10.624Z,17.63
2022-12-12T19:48:10.857Z,22.03
2022-12-12T19:50:40.684Z,17.81
2022-12-12T19:53:10.699Z,19.84
2022-12-12T19:55:40.731Z,18.75
2022-12-12T19:58:10.764Z,19.35
2022-12-12T20:00:40.776Z,15.16
2022-12-12T20:03:10.807Z,16.07
2022-12-12T20:05:40.826Z,14.26
2022-12-12T20:08:10.946Z,12.43
2022-12-12T20:10:40.869Z,18.84
2022-12-12T20:13:10.918Z,16.29
2022-12-12T20:15:40.972Z,13.54
2022-12-12T20:18:16.153Z,14.21
2022-12-12T20:20:40.980Z,12.46
2022-12-12T20:25:41.023Z,20.66
2022-12-12T20:28:11.061Z,19.65
2022-12-12T20:30:41.086Z,18.03
2022-12-12T20:35:41.128Z,14.39
2022-12-12T20:38:11.166Z,14.64
2022-12-12T20:40:41.165Z,14.92
2022-12-12T20:43:11.182Z,15.38
2022-12-12T20:45:41.226Z,16.19
2022-12-12T20:48:11.294Z,14.39
2022-12-12T20:50:41.264Z,14.44
2022-12-12T20:53:11.296Z,14.33
2022-12-12T20:55:41.310Z,12.68
2022-12-12T20:58:11.339Z,11.41
2022-12-12T21:00:41.367Z,13.24
2022-12-12T21:03:11.423Z,11.19
2022-12-12T21:05:41.420Z,14.53
2022-12-12T21:08:11.570Z,15.65
2022-12-12T21:13:11.502Z,18.01
2022-12-12T21:15:41.545Z,23.92
2022-12-12T21:18:11.534Z,19.95
2022-12-12T21:20:41.573Z,20.22
2022-12-12T21:23:11.591Z,16.28
2022-12-12T21:25:41.601Z,15.76
2022-12-12T21:30:41.655Z,15.73
2022-12-12T21:33:11.696Z,12.51
2022-12-12T21:35:41.708Z,21
2022-12-12T21:38:11.723Z,15.88
2022-12-12T21:45:41.806Z,12.5
2022-12-12T21:48:11.820Z,10.32
2022-12-12T21:50:41.838Z,11.94
2022-12-12T21:53:11.878Z,13.52
2022-12-12T21:55:41.891Z,14.01
2022-12-12T21:58:11.912Z,12.18
2022-12-12T22:08:12.243Z,14.1
2022-12-12T22:10:42.046Z,13.87
2022-12-12T22:13:12.060Z,11.96
2022-12-12T22:15:42.167Z,10.23
2022-12-12T22:18:12.113Z,8.55
2022-12-12T22:20:42.153Z,9.01
2022-12-12T22:23:12.155Z,12.44
2022-12-12T22:25:42.172Z,11.85
2022-12-12T22:28:12.195Z,23
2022-12-12T22:30:42.221Z,18.39
2022-12-12T22:38:12.300Z,13.16
2022-12-12T22:43:12.345Z,8.58
2022-12-12T22:45:42.355Z,12.74
2022-12-12T22:48:12.428Z,15.26
2022-12-12T22:50:42.437Z,11.16
2022-12-12T22:53:12.443Z,14.82
2022-12-12T22:58:12.506Z,15.03
2022-12-12T23:00:42.528Z,13.81
2022-12-12T23:03:12.837Z,14.09
2022-12-12T23:05:42.612Z,12.46
2022-12-12T23:08:12.703Z,12.98
2022-12-12T23:13:12.631Z,10.2
2022-12-12T23:15:42.688Z,8.91
2022-12-12T23:20:42.738Z,11.21
2022-12-12T23:25:42.770Z,13.19
2022-12-12T23:28:13.983Z,11.83
2022-12-12T23:30:42.810Z,12.16
2022-12-12T23:33:12.828Z,15.38
2022-12-12T23:35:42.853Z,13.93
2022-12-12T23:45:42.974Z,10.93
2022-12-12T23:48:13.017Z,9.33
2022-12-12T23:50:43.014Z,10.78
2022-12-12T23:55:43.066Z,10.36
2022-12-12T23:58:13.105Z,11.74
